Adner, Louisiana
Current Conditions -  °F | °C
As of 6:58 PM on Friday 24 Oct 2014 (Local Time) from KBAD Reporting Station
Clear Clear  
Wind Chill: 67°   Ceiling: Unl
Heat Index: 67°   Visibility: 10mi
Dew Point: 57°   Wind: 3mph
Humidity: 70%   Direction: 80°E
Pressure: 30.11"   Gusts: NA
Location:  32.5391°N, 93.5257°W
Report Text: KBAD 242358Z AUTO 08003KT 10SM CLR 20/14 A3011 RMK AO2 SLP199 T01960139 10258 20196 55001
Loading
Personal Weather Stations






























Interactive Weather Map
Tropical Storm Tracking
New forecast layout! Learn more

10-Day Weather Forecast

Advertisements
Track Severe Weather on mobile